Time;durP1;ratioP1;P1;durP2;ratioP2;P2;SDS_P1;SDS_P2;PMS_P1;PMS_P2;Temp;Humidity;BMP_temperature;BMP_pressure;BME280_temperature;BME280_humidity;BME280_pressure;Samples;Min_cycle;Max_cycle;Signal;HPM_P1;HPM_P2
2022/10/15 00:01:50;;;;;;;7.72;5.68;;;;;;;16.05;69.76;99987.81;5110803;28;20020;-44
2022/10/15 00:04:15;;;;;;;10.65;6.45;;;;;;;15.58;72.45;99992.06;5110572;28;20466;-43
2022/10/15 00:06:41;;;;;;;8.98;6.40;;;;;;;15.75;71.62;99984.19;5110681;28;20034;-43
2022/10/15 00:09:06;;;;;;;9.82;6.47;;;;;;;15.71;72.10;99988.34;5110478;28;20467;-44
2022/10/15 00:11:31;;;;;;;10.93;7.60;;;;;;;15.90;71.49;99983.72;5110492;28;20035;-43
2022/10/15 00:13:59;;;;;;;10.10;7.10;;;;;;;15.96;70.62;99982.78;5110751;28;20015;-42
2022/10/15 00:16:27;;;;;;;7.70;6.55;;;;;;;16.09;70.54;99981.75;5110676;28;20141;-43
2022/10/15 00:18:57;;;;;;;9.15;6.80;;;;;;;16.31;69.71;99981.94;5110515;28;20016;-45
2022/10/15 00:21:23;;;;;;;10.18;7.03;;;;;;;16.47;68.89;99974.22;5110333;28;20029;-45
2022/10/15 00:23:48;;;;;;;9.90;7.47;;;;;;;16.29;69.63;99975.19;5110547;28;20102;-44
2022/10/15 00:26:20;;;;;;;9.88;7.50;;;;;;;15.85;71.17;99947.91;5110385;28;20057;-43
2022/10/15 00:28:48;;;;;;;9.90;7.20;;;;;;;15.69;72.13;99966.31;5110471;28;20019;-43
2022/10/15 00:31:16;;;;;;;11.68;7.20;;;;;;;15.91;71.31;99971.94;5110502;28;20467;-46
2022/10/15 00:33:42;;;;;;;10.20;7.38;;;;;;;16.08;70.35;99968.56;5110486;28;20031;-45
2022/10/15 00:36:16;;;;;;;9.98;6.97;;;;;;;16.02;70.80;99967.63;5110500;28;20012;-45
2022/10/15 00:38:41;;;;;;;9.48;7.28;;;;;;;16.07;70.54;99969.59;5110288;28;20031;-43
2022/10/15 00:41:12;;;;;;;10.43;7.03;;;;;;;16.11;70.58;99968.09;5110407;28;20070;-42
2022/10/15 00:43:42;;;;;;;8.50;7.15;;;;;;;16.22;69.45;99968.09;5110308;28;20016;-45
2022/10/15 00:46:28;;;;;;;9.85;6.93;;;;;;;16.29;69.64;99964.47;5110253;28;20020;-43
2022/10/15 00:48:59;;;;;;;11.20;6.97;;;;;;;16.34;69.84;99960.00;5110314;28;20027;-43
2022/10/15 00:51:31;;;;;;;10.23;7.07;;;;;;;16.45;68.74;99960.22;5110353;28;20547;-45
2022/10/15 00:53:57;;;;;;;12.75;7.43;;;;;;;16.53;68.35;99954.50;5110370;28;20034;-44
2022/10/15 00:56:26;;;;;;;10.45;7.43;;;;;;;16.56;68.04;99954.84;5109941;28;20095;-44
2022/10/15 00:58:53;;;;;;;9.03;6.73;;;;;;;16.41;69.29;99955.34;5110239;28;20451;-44
2022/10/15 01:01:20;;;;;;;8.80;6.47;;;;;;;16.35;69.15;99955.44;5110250;28;20019;-44
2022/10/15 01:03:45;;;;;;;9.68;6.75;;;;;;;16.17;69.77;99953.75;5114033;28;20024;-44
2022/10/15 01:06:11;;;;;;;8.10;6.55;;;;;;;15.48;71.96;99943.53;5114346;28;20061;-43
2022/10/15 01:08:36;;;;;;;8.02;6.43;;;;;;;15.50;72.11;99945.97;5114755;28;20034;-44
2022/10/15 01:11:33;;;;;;;8.13;6.45;;;;;;;15.15;72.91;99950.19;5114510;27;20024;-44
2022/10/15 01:14:33;;;;;;;8.90;6.90;;;;;;;15.32;72.86;99955.72;5114696;28;20098;-43
2022/10/15 01:17:06;;;;;;;8.13;6.45;;;;;;;15.45;72.35;99950.16;5069253;28;20036;-42
2022/10/15 01:19:44;;;;;;;8.85;6.78;;;;;;;15.52;72.21;99955.44;5114361;27;20027;-43
2022/10/15 01:22:54;;;;;;;7.75;6.70;;;;;;;15.83;71.41;99958.88;5113902;28;20553;-45
2022/10/15 01:25:28;;;;;;;9.30;6.75;;;;;;;15.58;72.57;99951.81;5092881;28;20078;-43
2022/10/15 01:28:14;;;;;;;7.88;6.60;;;;;;;14.98;74.76;99947.38;5113925;28;20072;-45
2022/10/15 01:30:45;;;;;;;9.30;6.55;;;;;;;14.89;74.93;99954.09;5114100;28;20047;-46
2022/10/15 01:33:20;;;;;;;8.80;7.05;;;;;;;15.17;74.09;99953.50;5113956;28;20038;-48
2022/10/15 01:35:48;;;;;;;9.48;7.10;;;;;;;15.22;74.42;99953.59;5114370;28;20044;-45
2022/10/15 01:38:27;;;;;;;10.15;6.88;;;;;;;15.35;73.56;99960.63;5114158;28;20023;-45
2022/10/15 01:41:15;;;;;;;9.15;6.75;;;;;;;15.42;73.25;99956.00;5114342;28;20016;-43
2022/10/15 01:43:47;;;;;;;8.75;7.30;;;;;;;15.46;72.76;99959.03;5113997;28;20455;-43
2022/10/15 01:46:20;;;;;;;10.18;7.07;;;;;;;15.67;71.44;99957.66;5114231;28;20057;-44
2022/10/15 01:48:47;;;;;;;8.27;6.70;;;;;;;15.63;71.84;99957.31;5113882;28;20019;-43
2022/10/15 01:51:17;;;;;;;9.38;7.03;;;;;;;15.66;71.68;99957.91;5113698;28;20031;-43
2022/10/15 01:53:43;;;;;;;8.00;6.35;;;;;;;15.33;72.09;99957.38;5114180;28;20020;-43
2022/10/15 01:56:14;;;;;;;7.97;6.38;;;;;;;15.67;71.33;99956.84;5114312;28;20543;-46
2022/10/15 01:58:42;;;;;;;7.63;6.60;;;;;;;15.61;71.33;99954.06;5113855;28;20047;-43
2022/10/15 02:01:08;;;;;;;8.02;6.53;;;;;;;15.53;71.94;99959.72;5113730;28;20066;-44
2022/10/15 02:03:48;;;;;;;9.63;7.03;;;;;;;15.70;71.03;99959.06;5114468;28;20658;-43
2022/10/15 02:06:29;;;;;;;8.30;6.72;;;;;;;15.55;71.46;99962.19;5113644;28;20024;-45
2022/10/15 02:09:39;;;;;;;8.43;6.47;;;;;;;15.69;70.52;99960.94;5113872;28;20109;-42
2022/10/15 02:12:04;;;;;;;8.55;6.60;;;;;;;15.38;72.09;99960.19;5092453;28;20039;-45
2022/10/15 02:14:56;;;;;;;7.90;6.30;;;;;;;15.42;71.50;99960.53;5112858;28;20125;-44
2022/10/15 02:17:32;;;;;;;7.53;6.40;;;;;;;15.31;72.02;99955.97;5081617;28;20039;-43
2022/10/15 02:20:09;;;;;;;9.93;6.40;;;;;;;15.32;71.88;99952.22;5113194;28;20098;-44
2022/10/15 02:22:44;;;;;;;8.07;6.40;;;;;;;15.41;71.76;99953.53;5113258;28;20048;-43
2022/10/15 02:25:17;;;;;;;9.40;6.47;;;;;;;15.32;71.54;99955.72;5113224;28;20035;-46
2022/10/15 02:27:46;;;;;;;8.27;6.45;;;;;;;15.33;71.47;99952.00;5113291;28;20072;-45
2022/10/15 02:30:13;;;;;;;9.25;6.40;;;;;;;15.38;71.19;99959.34;5113099;28;20096;-45
2022/10/15 02:32:40;;;;;;;8.07;6.07;;;;;;;15.24;72.69;99964.91;5112998;28;20536;-45
2022/10/15 02:35:09;;;;;;;8.57;6.40;;;;;;;15.61;70.97;99962.09;5113503;28;20111;-45
2022/10/15 02:37:37;;;;;;;7.30;5.78;;;;;;;15.43;70.93;99962.97;5113143;28;20123;-44
2022/10/15 02:40:03;;;;;;;7.40;5.93;;;;;;;15.48;70.95;99958.78;5112982;28;20058;-45
2022/10/15 02:42:29;;;;;;;9.30;6.00;;;;;;;15.39;71.55;99963.69;5113130;28;20023;-46
2022/10/15 02:44:54;;;;;;;8.27;6.10;;;;;;;15.64;70.13;99966.97;5112665;28;20020;-45
2022/10/15 02:47:20;;;;;;;7.88;6.03;;;;;;;15.68;70.25;99958.47;5112847;28;20020;-47
2022/10/15 02:49:45;;;;;;;8.25;6.13;;;;;;;15.69;69.69;99952.06;5112797;28;20075;-44
2022/10/15 02:52:10;;;;;;;7.05;5.85;;;;;;;15.69;70.11;99955.56;5112783;28;20050;-44
2022/10/15 02:54:36;;;;;;;7.68;6.20;;;;;;;15.57;70.75;99960.09;5112713;28;20080;-43
2022/10/15 02:57:01;;;;;;;7.00;5.93;;;;;;;15.79;69.77;99952.34;5112792;27;20464;-43
2022/10/15 02:59:27;;;;;;;8.40;6.18;;;;;;;15.64;70.19;99958.13;5112466;28;20020;-43
2022/10/15 03:01:53;;;;;;;8.85;5.85;;;;;;;15.59;70.39;99958.00;5111231;28;20118;-44
2022/10/15 03:04:18;;;;;;;7.60;5.80;;;;;;;15.79;69.42;99955.84;5111076;28;20023;-45
2022/10/15 03:06:43;;;;;;;7.90;5.85;;;;;;;15.89;69.01;99960.63;5112058;28;20035;-44
2022/10/15 03:09:09;;;;;;;9.40;6.18;;;;;;;15.86;68.45;99955.75;5112606;28;20030;-46
2022/10/15 03:11:34;;;;;;;7.55;6.00;;;;;;;15.89;68.64;99957.13;5112294;28;20039;-45
2022/10/15 03:14:00;;;;;;;7.88;5.82;;;;;;;15.99;68.55;99957.34;5112263;28;20404;-47
2022/10/15 03:16:25;;;;;;;6.13;5.53;;;;;;;15.93;68.72;99959.09;5111984;28;20038;-45
2022/10/15 03:18:50;;;;;;;7.20;5.70;;;;;;;15.65;68.90;99959.78;5112060;28;20039;-46
2022/10/15 03:21:16;;;;;;;7.05;5.47;;;;;;;15.77;68.64;99962.50;5111952;28;20108;-46
2022/10/15 03:23:41;;;;;;;6.57;5.35;;;;;;;15.85;68.59;99969.38;5112073;28;20023;-43
2022/10/15 03:26:07;;;;;;;8.32;5.68;;;;;;;15.99;68.31;99965.41;5111184;28;20443;-44
2022/10/15 03:28:32;;;;;;;7.38;5.60;;;;;;;15.92;68.64;99973.59;5111708;28;20100;-45
2022/10/15 03:30:58;;;;;;;6.38;5.38;;;;;;;15.80;68.48;99960.16;5111583;28;20483;-46
2022/10/15 03:33:24;;;;;;;6.72;5.50;;;;;;;15.94;68.47;99966.13;5111947;28;20124;-44
2022/10/15 03:35:50;;;;;;;7.68;5.63;;;;;;;15.94;68.61;99965.31;5112141;28;20454;-43
2022/10/15 03:38:16;;;;;;;6.53;5.70;;;;;;;16.09;67.64;99967.50;5111888;28;20102;-44
2022/10/15 03:40:42;;;;;;;6.93;5.70;;;;;;;16.10;67.60;99966.47;5111962;28;20102;-46
2022/10/15 03:43:08;;;;;;;7.45;5.88;;;;;;;16.11;68.13;99973.47;5111723;28;20023;-46
2022/10/15 03:45:33;;;;;;;7.18;5.90;;;;;;;16.18;67.52;99972.31;5111450;28;20191;-45
2022/10/15 03:47:58;;;;;;;6.20;5.60;;;;;;;16.29;67.47;99970.63;5111868;28;20121;-46
2022/10/15 03:50:24;;;;;;;7.60;5.75;;;;;;;16.28;67.22;99969.03;5111885;28;20028;-45
2022/10/15 03:52:49;;;;;;;10.85;6.20;;;;;;;16.11;67.85;99976.97;5111758;28;20407;-44
2022/10/15 03:55:15;;;;;;;8.15;5.90;;;;;;;16.20;67.44;99972.03;5112315;28;20031;-43
2022/10/15 03:57:41;;;;;;;9.60;6.15;;;;;;;16.09;68.03;99970.19;5111979;28;20039;-43
2022/10/15 04:00:07;;;;;;;21.85;17.40;;;;;;;16.05;68.31;99956.44;5112494;28;20188;-41
2022/10/15 04:02:33;;;;;;;9.85;7.60;;;;;;;16.02;67.82;99965.75;5111400;27;20149;-44
2022/10/15 04:04:58;;;;;;;7.75;6.20;;;;;;;16.11;67.31;99970.78;5110964;28;20110;-47
2022/10/15 04:07:24;;;;;;;9.60;6.65;;;;;;;16.01;68.39;99964.13;5111121;28;20019;-46
2022/10/15 04:09:50;;;;;;;8.85;6.47;;;;;;;16.12;67.96;99967.84;5110712;28;20384;-47
2022/10/15 04:12:15;;;;;;;6.90;5.82;;;;;;;16.10;67.55;99963.78;5110821;28;20028;-43
2022/10/15 04:14:41;;;;;;;10.57;6.45;;;;;;;15.96;67.97;99974.75;5110714;27;20020;-43
2022/10/15 04:17:07;;;;;;;9.70;6.28;;;;;;;15.87;69.03;99973.44;5111057;28;20020;-44
2022/10/15 04:19:33;;;;;;;7.13;6.05;;;;;;;15.97;67.83;99968.34;5110804;28;20029;-44
2022/10/15 04:21:58;;;;;;;9.23;5.53;;;;;;;15.94;68.24;99974.16;5110480;28;20082;-42
2022/10/15 04:24:25;;;;;;;8.30;6.15;;;;;;;16.01;67.67;99961.44;5110741;28;20015;-44
2022/10/15 04:26:50;;;;;;;9.23;5.97;;;;;;;16.19;67.19;99973.91;5110754;28;20019;-46
2022/10/15 04:29:16;;;;;;;10.02;6.00;;;;;;;16.20;67.30;99975.56;5111487;28;20053;-43
2022/10/15 04:31:42;;;;;;;11.45;6.15;;;;;;;15.98;67.42;99964.59;5110879;28;20521;-44
2022/10/15 04:34:08;;;;;;;7.93;6.00;;;;;;;16.10;67.28;99972.63;5111379;28;20023;-46
2022/10/15 04:36:34;;;;;;;7.82;5.72;;;;;;;16.14;66.61;99967.63;5113582;28;20012;-44
2022/10/15 04:39:00;;;;;;;7.30;5.60;;;;;;;16.17;66.94;99970.66;5115438;28;20061;-43
2022/10/15 04:41:25;;;;;;;9.07;5.60;;;;;;;16.07;66.70;99974.97;5115064;28;20023;-43
2022/10/15 04:43:51;;;;;;;6.63;5.40;;;;;;;16.01;66.77;99961.44;5114990;28;20371;-42
2022/10/15 04:46:17;;;;;;;6.45;5.30;;;;;;;15.87;67.82;99970.78;5114893;28;20030;-42
2022/10/15 04:48:42;;;;;;;7.72;5.55;;;;;;;15.92;67.58;99973.59;5115177;28;20024;-42
2022/10/15 04:51:11;;;;;;;11.98;8.15;;;;;;;16.10;66.25;99975.31;5115085;28;20028;-43
2022/10/15 04:53:36;;;;;;;61.53;40.33;;;;;;;16.17;67.47;99972.53;5114940;28;20107;-43
2022/10/15 04:56:04;;;;;;;56.70;33.38;;;;;;;16.02;67.39;99979.16;5114841;28;20106;-43
2022/10/15 04:58:31;;;;;;;123.10;78.65;;;;;;;16.01;66.96;99974.88;5115013;28;20027;-45
2022/10/15 05:01:12;;;;;;;14.73;9.52;;;;;;;15.58;68.12;99981.31;5115065;28;20348;-44
2022/10/15 05:03:38;;;;;;;;;;;;;;;16.01;68.73;99972.19;5114970;28;20103;-44
2022/10/15 05:06:09;;;;;;;8.57;5.78;;;;;;;15.99;67.41;99981.50;5114592;28;19911;-43
2022/10/15 05:08:35;;;;;;;8.13;5.75;;;;;;;15.89;68.05;99981.28;5114539;27;20506;-44
2022/10/15 05:11:03;;;;;;;7.50;5.13;;;;;;;15.77;68.24;99981.28;5114414;28;20035;-45
2022/10/15 05:13:29;;;;;;;9.68;5.80;;;;;;;15.92;68.31;99984.31;5112924;28;20020;-45
2022/10/15 05:15:55;;;;;;;7.95;5.60;;;;;;;16.06;66.78;99978.72;5114507;27;20054;-43
2022/10/15 05:18:20;;;;;;;14.35;11.27;;;;;;;16.05;67.36;99980.59;5113241;28;20100;-44
2022/10/15 05:20:46;;;;;;;9.68;7.65;;;;;;;16.08;67.22;99990.03;5113647;28;20024;-44
2022/10/15 05:23:11;;;;;;;13.43;9.65;;;;;;;16.10;66.81;99990.63;5113839;28;20047;-43
2022/10/15 05:25:36;;;;;;;15.35;12.65;;;;;;;15.95;68.74;99997.25;5113753;27;20024;-45
2022/10/15 05:28:02;;;;;;;13.05;9.13;;;;;;;16.11;67.97;99994.94;5113985;28;20031;-44
2022/10/15 05:30:27;;;;;;;29.02;19.67;;;;;;;16.05;68.31;99990.50;5113491;28;20043;-43
2022/10/15 05:32:54;;;;;;;17.00;8.15;;;;;;;16.07;67.81;99994.59;5114063;28;20019;-42
2022/10/15 05:35:19;;;;;;;14.45;6.65;;;;;;;15.88;68.45;99993.88;5113019;28;20094;-42
2022/10/15 05:37:45;;;;;;;12.85;6.15;;;;;;;16.08;67.69;100000.78;5113859;28;20099;-44
2022/10/15 05:40:11;;;;;;;15.68;6.45;;;;;;;16.07;67.83;99999.13;5114083;28;20491;-44
2022/10/15 05:42:36;;;;;;;14.50;6.47;;;;;;;16.18;68.61;100004.53;5113753;28;20024;-42
2022/10/15 05:45:02;;;;;;;15.38;5.40;;;;;;;16.04;68.46;99997.72;5113291;28;20016;-44
2022/10/15 05:47:27;;;;;;;6.90;5.03;;;;;;;16.11;68.01;100008.38;5112846;28;20024;-45
2022/10/15 05:49:53;;;;;;;7.80;5.30;;;;;;;16.21;66.93;100006.72;5113546;28;20023;-45
2022/10/15 05:52:18;;;;;;;8.05;5.50;;;;;;;16.12;67.31;100023.41;5113102;28;20035;-43
2022/10/15 05:54:44;;;;;;;8.70;5.53;;;;;;;16.35;66.31;100023.41;5113587;28;20012;-44
2022/10/15 05:57:09;;;;;;;7.03;5.22;;;;;;;15.94;68.50;100029.72;5113438;28;20026;-43
2022/10/15 05:59:35;;;;;;;9.15;5.53;;;;;;;16.11;67.81;100027.16;5108372;28;20027;-43
2022/10/15 06:02:00;;;;;;;10.55;5.38;;;;;;;16.38;66.56;100036.38;5103318;28;20448;-37
2022/10/15 06:04:26;;;;;;;10.15;7.22;;;;;;;16.58;66.15;100027.13;5107355;28;20023;-37
2022/10/15 06:06:51;;;;;;;15.48;5.80;;;;;;;16.24;66.85;100026.94;5113231;28;20035;-37
2022/10/15 06:09:16;;;;;;;12.55;6.30;;;;;;;16.41;66.71;100035.91;5113493;28;20023;-37
2022/10/15 06:11:42;;;;;;;10.55;6.07;;;;;;;16.55;66.49;100031.09;5112792;28;20467;-43
2022/10/15 06:14:07;;;;;;;14.85;7.57;;;;;;;16.88;65.93;100034.22;5113331;28;20028;-36
2022/10/15 06:16:33;;;;;;;14.10;6.60;;;;;;;17.05;63.87;100035.09;5113428;28;20027;-38
2022/10/15 06:18:58;;;;;;;16.00;6.90;;;;;;;16.89;64.15;100036.69;5113833;28;20502;-37
2022/10/15 06:21:24;;;;;;;8.75;5.32;;;;;;;16.16;66.89;100041.53;5110382;28;20027;-37
2022/10/15 06:23:49;;;;;;;10.55;5.50;;;;;;;16.28;66.72;100043.38;5099193;28;20023;-36
2022/10/15 06:26:15;;;;;;;9.00;6.25;;;;;;;16.71;65.79;100044.84;5112701;27;20016;-37
2022/10/15 06:28:40;;;;;;;10.27;6.13;;;;;;;16.93;64.72;100042.41;5113256;28;20170;-37
2022/10/15 06:31:06;;;;;;;13.27;9.20;;;;;;;16.83;65.07;100053.75;5113409;28;20024;-35
2022/10/15 06:33:32;;;;;;;7.80;5.93;;;;;;;16.60;65.41;100050.03;5112818;28;20024;-36
2022/10/15 06:36:04;;;;;;;9.98;5.65;;;;;;;16.97;66.29;100057.00;5111706;28;20033;-36
2022/10/15 06:38:30;;;;;;;11.70;5.82;;;;;;;17.25;63.65;100056.19;5111658;28;20108;-42
2022/10/15 06:40:55;;;;;;;24.90;15.88;;;;;;;17.23;65.31;100061.00;5111050;28;20676;-35
2022/10/15 06:43:21;;;;;;;18.85;10.35;;;;;;;16.73;66.77;100059.69;5111721;28;20111;-43
2022/10/15 06:45:46;;;;;;;13.38;7.97;;;;;;;17.18;64.23;100058.22;5111721;28;20118;-37
2022/10/15 06:48:11;;;;;;;9.90;6.38;;;;;;;17.37;63.91;100067.72;5111303;28;20032;-37
2022/10/15 06:50:38;;;;;;;18.23;7.15;;;;;;;17.25;63.99;100053.50;5111763;28;20103;-36
2022/10/15 06:53:04;;;;;;;14.23;6.90;;;;;;;17.55;65.67;100057.81;5105354;28;20028;-36
2022/10/15 06:55:30;;;;;;;10.38;5.30;;;;;;;17.71;62.61;100064.28;5112371;28;20077;-36
2022/10/15 06:57:55;;;;;;;9.90;5.47;;;;;;;17.92;61.46;100062.78;5112416;28;20033;-35
2022/10/15 07:00:22;;;;;;;10.68;5.18;;;;;;;17.90;61.94;100068.41;5111394;28;20019;-36
2022/10/15 07:02:48;;;;;;;8.82;4.97;;;;;;;17.30;63.24;100068.91;5112298;28;20016;-37
2022/10/15 07:05:13;;;;;;;11.55;4.70;;;;;;;17.66;62.84;100069.56;5112055;28;20387;-36
2022/10/15 07:07:39;;;;;;;9.15;4.55;;;;;;;17.69;61.57;100069.09;5112225;28;20023;-37
2022/10/15 07:10:05;;;;;;;8.13;4.70;;;;;;;17.42;62.47;100066.16;5112676;28;20487;-37
2022/10/15 07:12:31;;;;;;;8.70;4.90;;;;;;;17.58;61.59;100066.22;5111956;27;20478;-37
2022/10/15 07:14:56;;;;;;;6.68;4.60;;;;;;;17.55;61.51;100063.19;5111121;28;20405;-37
2022/10/15 07:17:21;;;;;;;6.90;4.38;;;;;;;17.95;60.64;100065.81;5110960;28;20111;-36
2022/10/15 07:19:47;;;;;;;7.55;4.78;;;;;;;18.08;59.82;100055.78;5111076;28;20019;-36
2022/10/15 07:22:18;;;;;;;7.25;4.70;;;;;;;18.40;58.65;100068.66;5120439;27;20529;-37
2022/10/15 07:24:43;;;;;;;13.82;4.07;;;;;;;18.47;58.98;100067.41;5087806;28;20047;-37
2022/10/15 07:27:09;;;;;;;5.70;3.85;;;;;;;18.85;58.25;100062.25;5088179;28;20021;-36
2022/10/15 07:29:34;;;;;;;7.13;3.92;;;;;;;19.05;56.35;100059.00;5088381;28;20127;-36
2022/10/15 07:31:59;;;;;;;8.88;4.45;;;;;;;19.23;56.09;100061.38;5088731;28;20099;-42
2022/10/15 07:34:25;;;;;;;8.65;4.40;;;;;;;19.50;55.01;100066.78;5087683;28;20024;-43
2022/10/15 07:36:50;;;;;;;7.90;4.25;;;;;;;19.75;54.81;100061.94;5087868;28;20400;-44
2022/10/15 07:39:18;;;;;;;7.03;4.45;;;;;;;20.17;52.79;100067.41;5088062;28;20032;-42
2022/10/15 07:41:44;;;;;;;4.55;3.50;;;;;;;19.96;52.88;100058.31;5087998;28;20410;-43
2022/10/15 07:44:09;;;;;;;6.22;3.97;;;;;;;19.83;52.90;100067.66;5088203;28;20025;-43
2022/10/15 07:46:35;;;;;;;7.25;4.18;;;;;;;20.40;52.34;100063.50;5088123;28;20098;-42
2022/10/15 07:49:01;;;;;;;6.72;3.85;;;;;;;20.19;51.14;100062.53;5086046;28;20450;-44
2022/10/15 07:51:26;;;;;;;7.97;4.53;;;;;;;20.48;51.02;100065.69;5087429;28;20032;-45
2022/10/15 07:53:51;;;;;;;6.82;3.92;;;;;;;20.56;50.79;100063.59;5087670;28;20140;-43
2022/10/15 07:56:18;;;;;;;6.13;3.97;;;;;;;20.69;51.64;100063.97;5087233;28;20406;-43
2022/10/15 07:58:50;;;;;;;9.15;4.18;;;;;;;21.71;49.03;100064.59;5087328;28;20024;-44
2022/10/15 08:01:16;;;;;;;8.00;3.40;;;;;;;22.00;46.85;100062.13;5087019;28;20039;-44
2022/10/15 08:03:42;;;;;;;5.15;3.40;;;;;;;22.24;45.98;100068.63;5087053;28;20414;-43
2022/10/15 08:06:07;;;;;;;5.75;3.72;;;;;;;22.79;44.10;100063.38;5087086;28;20504;-41
2022/10/15 08:08:34;;;;;;;7.18;4.15;;;;;;;22.81;44.24;100063.09;5086977;28;20082;-45
2022/10/15 08:11:08;;;;;;;7.50;4.03;;;;;;;23.09;43.73;100055.41;5085983;28;20027;-43
2022/10/15 08:13:33;;;;;;;5.82;3.67;;;;;;;23.48;43.50;100057.38;5086532;28;20107;-43
2022/10/15 08:15:59;;;;;;;5.95;3.50;;;;;;;23.80;42.42;100054.97;5087482;28;20103;-43
2022/10/15 08:18:25;;;;;;;6.05;3.20;;;;;;;24.07;41.31;100058.31;5087139;28;20031;-44
2022/10/15 08:20:51;;;;;;;4.88;3.38;;;;;;;24.00;41.60;100055.91;5086089;28;20515;-43
2022/10/15 08:23:16;;;;;;;5.47;3.10;;;;;;;23.37;42.78;100056.59;5086741;28;20026;-45
2022/10/15 08:25:43;;;;;;;6.28;3.05;;;;;;;23.67;41.27;100030.34;5086653;28;20082;-42
2022/10/15 08:28:09;;;;;;;7.10;3.28;;;;;;;23.80;41.58;100056.91;5086596;28;20077;-45
2022/10/15 08:30:37;;;;;;;5.65;3.25;;;;;;;23.80;41.06;100046.03;5086693;28;20020;-42
2022/10/15 08:33:03;;;;;;;4.78;3.10;;;;;;;23.79;40.86;100044.38;5074887;28;20058;-43
2022/10/15 08:35:34;;;;;;;5.78;2.80;;;;;;;24.17;39.68;100050.03;5071326;28;20071;-44
2022/10/15 08:37:59;;;;;;;5.53;2.80;;;;;;;23.49;41.63;100048.13;5071855;28;20031;-44
2022/10/15 08:40:25;;;;;;;4.13;2.65;;;;;;;23.48;41.20;100050.03;5071871;28;20017;-43
2022/10/15 08:42:51;;;;;;;5.63;3.15;;;;;;;23.72;40.73;100047.41;5071908;28;20047;-42
2022/10/15 08:45:21;;;;;;;7.32;2.90;;;;;;;23.39;41.63;100052.50;5072227;28;20101;-42
2022/10/15 08:47:49;;;;;;;5.47;3.40;;;;;;;23.69;41.58;100050.69;5072638;28;20400;-42
2022/10/15 08:50:26;;;;;;;5.30;3.03;;;;;;;24.32;40.34;100054.53;5072854;28;20095;-43
2022/10/15 08:52:54;;;;;;;5.03;2.85;;;;;;;24.88;39.11;100055.81;5072996;28;20031;-42
2022/10/15 08:55:22;;;;;;;5.88;3.13;;;;;;;24.63;38.96;100054.22;5072863;28;20035;-44
2022/10/15 08:57:56;;;;;;;5.38;2.92;;;;;;;23.87;39.65;100064.72;5072683;28;20029;-44
2022/10/15 09:00:29;;;;;;;7.55;2.92;;;;;;;24.20;39.20;100071.22;5072766;28;20052;-44
2022/10/15 09:03:14;;;;;;;6.78;2.90;;;;;;;24.35;38.07;100072.97;5072538;28;20052;-43
2022/10/15 09:05:48;;;;;;;3.58;2.60;;;;;;;24.47;38.49;100075.31;5072392;28;20021;-43
2022/10/15 09:08:32;;;;;;;4.78;2.90;;;;;;;24.45;38.44;100078.31;5072299;28;20028;-46
2022/10/15 09:11:12;;;;;;;10.32;2.67;;;;;;;24.78;37.55;100073.88;5071861;28;20045;-47
2022/10/15 09:13:40;;;;;;;4.78;2.70;;;;;;;25.46;35.41;100069.22;5073064;28;20496;-44
2022/10/15 09:16:15;;;;;;;9.52;2.90;;;;;;;25.79;35.33;100073.91;5071903;28;20035;-46
2022/10/15 09:18:45;;;;;;;8.48;2.78;;;;;;;25.38;35.52;100080.78;5069448;28;20024;-43
2022/10/15 09:21:12;;;;;;;5.32;2.80;;;;;;;24.94;35.98;100081.88;5071381;28;20045;-45
2022/10/15 09:23:40;;;;;;;30.85;3.85;;;;;;;25.18;35.99;100070.94;5071837;28;20020;-43
2022/10/15 09:26:11;;;;;;;5.82;3.60;;;;;;;25.51;35.25;100077.34;5071898;28;20054;-47
2022/10/15 09:28:54;;;;;;;5.95;2.95;;;;;;;26.05;35.36;100083.31;5071529;28;20480;-44
2022/10/15 09:31:23;;;;;;;25.10;17.95;;;;;;;26.55;34.21;100079.16;5068360;28;20077;-44
2022/10/15 09:33:58;;;;;;;8.45;3.88;;;;;;;25.95;35.85;100078.06;5071289;28;20021;-46
2022/10/15 09:36:33;;;;;;;6.20;3.00;;;;;;;26.51;34.28;100074.31;5069349;28;20020;-44
2022/10/15 09:39:10;;;;;;;5.30;3.40;;;;;;;25.23;36.00;100072.84;5068327;28;20021;-45
2022/10/15 09:41:59;;;;;;;5.97;3.00;;;;;;;25.68;35.45;100074.09;5071012;28;20475;-46
2022/10/15 09:44:31;;;;;;;4.53;2.90;;;;;;;25.91;36.10;100066.06;5068196;28;20027;-45
2022/10/15 09:46:56;;;;;;;7.95;3.25;;;;;;;25.44;36.18;100062.47;5070803;28;20147;-43
2022/10/15 09:49:26;;;;;;;5.95;3.40;;;;;;;25.59;35.30;100061.41;5071385;28;20103;-45
2022/10/15 09:52:02;;;;;;;6.10;4.05;;;;;;;25.09;36.76;100068.09;5071256;28;20029;-43
2022/10/15 09:54:46;;;;;;;6.85;4.03;;;;;;;25.94;34.10;100057.34;5071342;28;20503;-45
2022/10/15 09:57:14;;;;;;;5.70;3.20;;;;;;;25.33;33.98;100062.59;5071396;28;20495;-43
2022/10/15 09:59:55;;;;;;;4.35;2.90;;;;;;;25.20;34.52;100066.03;5071553;28;20081;-42
2022/10/15 10:02:23;;;;;;;5.90;2.97;;;;;;;25.24;34.79;100060.84;5071682;28;20442;-42
2022/10/15 10:04:49;;;;;;;4.18;2.85;;;;;;;25.50;33.65;100053.91;5070875;28;20488;-43
2022/10/15 10:07:44;;;;;;;4.78;3.05;;;;;;;25.79;32.93;100054.84;5070167;28;20025;-43
2022/10/15 10:10:27;;;;;;;4.18;2.88;;;;;;;25.53;33.17;100052.50;5060860;28;20032;-43
2022/10/15 10:12:57;;;;;;;3.55;2.60;;;;;;;25.22;33.21;100052.13;5069947;28;20127;-44
2022/10/15 10:15:29;;;;;;;;;;;;;;;24.88;33.27;100048.47;5070614;28;20067;-42
2022/10/15 10:17:56;;;;;;;4.20;2.83;;;;;;;23.83;33.86;100044.63;5068520;28;20396;-42
2022/10/15 10:20:24;;;;;;;4.57;2.47;;;;;;;23.60;34.44;100049.66;5069479;28;20037;-45
2022/10/15 10:22:49;;;;;;;4.97;2.60;;;;;;;23.60;35.03;100047.75;5069790;28;20020;-42
2022/10/15 10:25:35;;;;;;;3.70;2.70;;;;;;;23.52;34.81;100053.00;5069702;28;20036;-41
2022/10/15 10:28:15;;;;;;;4.13;2.58;;;;;;;23.11;36.25;100043.16;5069741;28;20077;-42
2022/10/15 10:30:59;;;;;;;3.60;2.97;;;;;;;22.91;36.45;100048.69;5069446;28;20049;-44
2022/10/15 10:33:27;;;;;;;5.70;3.15;;;;;;;22.64;37.45;100041.72;5069426;28;20103;-44
2022/10/15 10:35:53;;;;;;;4.28;3.10;;;;;;;22.97;37.26;100040.22;5069571;28;20500;-44
2022/10/15 10:38:25;;;;;;;5.53;4.05;;;;;;;23.05;37.94;100036.16;5069849;28;20016;-42
2022/10/15 10:40:54;;;;;;;4.10;3.00;;;;;;;23.29;37.63;100025.44;5069458;28;20024;-43
2022/10/15 10:43:25;;;;;;;5.20;2.63;;;;;;;23.28;37.95;100025.72;5069184;28;20024;-43
2022/10/15 10:46:13;;;;;;;3.63;2.70;;;;;;;23.96;36.91;100033.91;5069648;28;20428;-43
2022/10/15 10:48:42;;;;;;;4.32;2.78;;;;;;;24.55;35.20;100028.47;5062431;28;20115;-43
2022/10/15 10:51:12;;;;;;;7.25;3.05;;;;;;;24.62;35.35;100026.22;5069572;28;20009;-45
2022/10/15 10:53:47;;;;;;;4.38;3.20;;;;;;;25.01;34.23;100019.72;5069212;28;20020;-41
2022/10/15 10:56:14;;;;;;;5.45;3.00;;;;;;;24.42;35.30;100016.34;5069108;28;20161;-44
2022/10/15 10:58:40;;;;;;;4.93;2.70;;;;;;;25.06;33.90;100011.50;5069108;28;20028;-42
2022/10/15 11:01:08;;;;;;;3.53;2.70;;;;;;;25.55;33.29;100012.97;5069006;28;20023;-42
2022/10/15 11:03:36;;;;;;;6.65;2.97;;;;;;;25.32;33.10;100011.13;5068741;28;20024;-45
2022/10/15 11:06:10;;;;;;;3.40;2.65;;;;;;;24.69;33.06;100009.53;5069360;28;20119;-43
2022/10/15 11:09:00;;;;;;;5.40;2.67;;;;;;;24.31;34.72;100004.78;5069240;28;20024;-43
2022/10/15 11:11:31;;;;;;;4.45;2.80;;;;;;;24.81;33.10;100012.66;5069241;28;20025;-43
2022/10/15 11:14:00;;;;;;;3.78;2.60;;;;;;;24.38;33.45;100016.09;5068892;28;20350;-42
2022/10/15 11:16:51;;;;;;;3.05;2.72;;;;;;;24.18;33.57;100017.13;5069223;28;20101;-43
2022/10/15 11:19:19;;;;;;;4.85;2.88;;;;;;;24.36;34.37;100012.84;5069314;28;20337;-43
2022/10/15 11:22:17;;;;;;;5.53;2.78;;;;;;;24.43;35.34;100004.38;5068773;28;20519;-44
2022/10/15 11:25:20;;;;;;;7.55;2.88;;;;;;;24.49;35.03;100005.91;5068251;28;20492;-42
2022/10/15 11:28:05;;;;;;;3.80;2.58;;;;;;;25.15;33.60;99998.84;5069391;28;20158;-42
2022/10/15 11:30:49;;;;;;;5.85;2.70;;;;;;;25.30;33.71;99989.66;5068963;28;20041;-43
2022/10/15 11:33:23;;;;;;;14.98;11.07;;;;;;;25.44;33.54;99986.19;5067761;28;20101;-43
2022/10/15 11:36:13;;;;;;;7.53;4.20;;;;;;;25.13;34.02;99987.44;5068804;28;20481;-41
2022/10/15 11:38:44;;;;;;;6.35;2.97;;;;;;;25.22;33.56;99984.84;5068793;28;20024;-43